Time;durP1;ratioP1;P1;durP2;ratioP2;P2;SDS_P1;SDS_P2;PMS_P1;PMS_P2;Temp;Humidity;BMP_temperature;BMP_pressure;BME280_temperature;BME280_humidity;BME280_pressure;Samples;Min_cycle;Max_cycle;Signal;HPM_P1;HPM_P2
2022/11/15 00:00:37;;;;;;;12.85;5.05;;;9.90;99.90;;;;;;5826121;30;20088;-86
2022/11/15 00:03:42;;;;;;;14.82;4.60;;;9.90;99.90;;;;;;5921888;29;20057;-86
2022/11/15 00:06:51;;;;;;;11.50;5.00;;;10.00;99.90;;;;;;6196379;28;20049;-86
2022/11/15 00:09:55;;;;;;;16.85;5.75;;;9.90;99.90;;;;;;6247821;28;20052;-86
2022/11/15 00:12:57;;;;;;;12.77;6.22;;;9.90;99.90;;;;;;6248368;28;20052;-86
2022/11/15 00:16:08;;;;;;;15.43;5.70;;;10.90;99.90;;;;;;6248533;28;20081;-85
2022/11/15 00:19:11;;;;;;;9.18;4.70;;;9.90;99.90;;;;;;6248717;28;20053;-85
2022/11/15 00:25:43;;;;;;;10.48;5.93;;;9.40;99.90;;;;;;6236138;28;20053;-85
2022/11/15 00:28:45;;;;;;;8.23;4.40;;;10.20;99.90;;;;;;6247731;28;20651;-85
2022/11/15 00:31:52;;;;;;;15.77;5.55;;;9.90;99.90;;;;;;6247670;28;20414;-85
2022/11/15 00:35:01;;;;;;;11.38;4.80;;;10.20;99.90;;;;;;6248604;28;20052;-85
2022/11/15 00:38:03;;;;;;;18.90;5.93;;;10.20;99.90;;;;;;6247535;28;20065;-85
2022/11/15 00:41:06;;;;;;;9.80;5.75;;;10.00;99.90;;;;;;6247651;28;20511;-87
2022/11/15 00:44:13;;;;;;;11.82;5.90;;;10.30;99.90;;;;;;6247833;28;20057;-85
2022/11/15 00:47:16;;;;;;;12.20;5.90;;;10.20;99.90;;;;;;6248403;28;20049;-88
2022/11/15 00:50:20;;;;;;;10.63;5.38;;;10.20;99.90;;;;;;6246917;28;20072;-85
2022/11/15 00:53:30;;;;;;;9.75;5.22;;;10.40;99.90;;;;;;6235721;28;20042;-87
2022/11/15 00:56:50;;;;;;;11.32;5.28;;;10.20;99.90;;;;;;6246662;28;20340;-84
2022/11/15 00:59:52;;;;;;;9.73;4.90;;;10.30;99.90;;;;;;6247410;28;20056;-84
2022/11/15 01:02:55;;;;;;;12.70;5.38;;;10.40;99.90;;;;;;6247749;28;20392;-85
2022/11/15 01:06:00;;;;;;;11.30;5.28;;;10.30;99.90;;;;;;6247241;28;20049;-85
2022/11/15 01:09:03;;;;;;;12.57;5.18;;;10.30;99.90;;;;;;6237129;28;20052;-87
2022/11/15 01:12:06;;;;;;;10.85;5.45;;;10.40;99.90;;;;;;6247048;28;20048;-85
2022/11/15 01:15:26;;;;;;;9.65;5.30;;;10.40;99.90;;;;;;6249151;28;20132;-86
2022/11/15 01:18:36;;;;;;;12.02;6.03;;;10.30;99.90;;;;;;6251605;28;20055;-85
2022/11/15 01:21:38;;;;;;;11.77;5.13;;;10.40;99.90;;;;;;6240650;28;20053;-85
2022/11/15 01:24:40;;;;;;;9.82;4.90;;;10.40;99.90;;;;;;6251404;28;20142;-84
2022/11/15 01:27:48;;;;;;;11.48;5.28;;;10.30;99.90;;;;;;6272009;28;20076;-85
2022/11/15 01:30:50;;;;;;;16.55;5.25;;;10.30;99.90;;;;;;6277065;28;20571;-85
2022/11/15 01:33:53;;;;;;;10.50;5.30;;;10.60;99.90;;;;;;6275909;28;20411;-85
2022/11/15 01:36:57;;;;;;;10.40;6.13;;;10.60;99.90;;;;;;6275615;28;20049;-87
2022/11/15 01:39:59;;;;;;;9.75;4.75;;;10.60;99.90;;;;;;6276207;28;20391;-84
2022/11/15 01:43:15;;;;;;;10.88;5.18;;;10.70;99.90;;;;;;6276732;28;20498;-85
2022/11/15 01:46:29;;;;;;;6.90;4.68;;;11.20;99.90;;;;;;6275434;28;20131;-87
2022/11/15 01:49:36;;;;;;;10.20;5.10;;;10.60;99.90;;;;;;6275705;28;20131;-84
2022/11/15 01:52:44;;;;;;;10.00;4.90;;;10.70;99.90;;;;;;6275835;28;20055;-85
2022/11/15 01:55:50;;;;;;;7.97;4.70;;;11.00;99.90;;;;;;6268805;28;20515;-85
2022/11/15 01:58:55;;;;;;;13.57;6.78;;;10.90;99.90;;;;;;6288849;28;20049;-85
2022/11/15 02:01:59;;;;;;;11.88;5.60;;;10.90;99.90;;;;;;6275499;28;20072;-86
2022/11/15 02:05:23;;;;;;;8.35;3.70;;;11.00;99.90;;;;;;6275599;28;20033;-86
2022/11/15 02:08:39;;;;;;;15.55;5.93;;;10.90;99.90;;;;;;6275042;28;20470;-85
2022/11/15 02:11:44;;;;;;;11.35;5.47;;;11.00;99.90;;;;;;6277481;28;20052;-85
2022/11/15 02:14:49;;;;;;;6.78;4.25;;;11.90;99.90;;;;;;6290752;28;20041;-85
2022/11/15 02:18:13;;;;;;;8.45;4.95;;;11.20;99.90;;;;;;6275467;28;20064;-85
2022/11/15 02:21:29;;;;;;;15.00;4.80;;;11.10;99.90;;;;;;6275303;28;20048;-85
2022/11/15 02:24:53;;;;;;;10.13;4.85;;;11.30;99.90;;;;;;6276089;28;20045;-85
2022/11/15 02:28:28;;;;;;;11.38;5.93;;;11.30;99.90;;;;;;6274338;28;20048;-85
2022/11/15 02:31:58;;;;;;;10.15;5.85;;;10.80;99.90;;;;;;6275054;28;20045;-85
2022/11/15 02:35:08;;;;;;;10.73;5.45;;;10.80;99.90;;;;;;6275913;28;20049;-85
2022/11/15 02:38:18;;;;;;;8.98;4.60;;;10.70;99.90;;;;;;6274176;28;20053;-85
2022/11/15 02:41:26;;;;;;;8.32;4.63;;;11.10;99.90;;;;;;6275540;28;20052;-84
2022/11/15 02:44:31;;;;;;;;;;;10.60;99.90;;;;;;6265107;28;20434;-86
2022/11/15 02:47:40;;;;;;;5.43;3.80;;;10.90;99.90;;;;;;6274254;28;19916;-85
2022/11/15 02:50:43;;;;;;;17.08;6.88;;;11.00;99.90;;;;;;6275506;28;20075;-86
2022/11/15 02:53:45;;;;;;;11.95;5.20;;;11.00;99.90;;;;;;6274509;28;20387;-86
2022/11/15 02:56:48;;;;;;;9.65;5.20;;;10.90;99.90;;;;;;6274806;28;20056;-86
2022/11/15 03:00:13;;;;;;;11.18;4.55;;;10.90;99.90;;;;;;6273769;28;20052;-86
2022/11/15 03:03:32;;;;;;;13.05;5.13;;;10.90;99.90;;;;;;6289020;28;20060;-86
2022/11/15 03:06:40;;;;;;;11.25;6.00;;;11.00;99.90;;;;;;6282731;28;20045;-88
2022/11/15 03:09:49;;;;;;;11.47;4.83;;;11.40;99.90;;;;;;6275075;28;20136;-85
2022/11/15 03:12:57;;;;;;;11.95;4.38;;;11.10;99.90;;;;;;6273989;28;20088;-86
2022/11/15 03:16:05;;;;;;;8.13;4.55;;;11.30;99.90;;;;;;6264684;28;20090;-85
2022/11/15 03:19:15;;;;;;;9.70;5.45;;;11.30;99.90;;;;;;6274200;28;20052;-86
2022/11/15 03:22:19;;;;;;;7.00;4.13;;;11.30;99.90;;;;;;6273623;28;20060;-85
2022/11/15 03:25:25;;;;;;;10.88;5.18;;;11.40;99.90;;;;;;6273759;28;20040;-85
2022/11/15 03:28:36;;;;;;;8.15;5.05;;;11.40;99.90;;;;;;6273555;28;20079;-85
2022/11/15 03:36:23;;;;;;;10.23;5.93;;;11.40;99.90;;;;;;6272371;28;20053;-85
2022/11/15 03:44:11;;;;;;;;;;;;;;;;;;;;;
2022/11/15 03:48:00;;;;;;;14.32;7.55;;;11.30;99.90;;;;;;6273307;28;20094;-85
2022/11/15 04:11:01;;;;;;;10.60;4.65;;;11.50;99.90;;;;;;6191738;28;20509;-86
2022/11/15 04:14:08;;;;;;;11.30;5.40;;;11.60;99.90;;;;;;6271976;28;20045;-86
2022/11/15 04:17:26;;;;;;;11.15;5.35;;;11.40;99.90;;;;;;6271546;28;20049;-86
2022/11/15 04:27:27;;;;;;;7.13;4.22;;;11.20;99.90;;;;;;6282336;28;20505;-86
2022/11/15 04:30:29;;;;;;;11.77;4.82;;;11.10;99.90;;;;;;6273078;28;20072;-86
2022/11/15 04:33:44;;;;;;;8.88;5.57;;;11.10;99.90;;;;;;6270185;28;20187;-88
2022/11/15 04:37:13;;;;;;;8.23;4.05;;;11.20;99.90;;;;;;6272667;28;20517;-88
2022/11/15 04:40:24;;;;;;;13.38;5.20;;;11.20;99.90;;;;;;6271846;28;20041;-86
2022/11/15 04:43:42;;;;;;;12.25;5.38;;;11.20;99.90;;;;;;6270543;28;20415;-86
2022/11/15 04:46:45;;;;;;;12.85;5.32;;;11.00;99.90;;;;;;6272566;28;20045;-85
2022/11/15 04:49:48;;;;;;;10.32;5.50;;;11.10;99.90;;;;;;6271754;28;20049;-86
2022/11/15 04:52:55;;;;;;;11.63;5.18;;;11.10;99.90;;;;;;6271844;28;20041;-85
2022/11/15 04:55:56;;;;;;;9.20;5.72;;;10.80;99.90;;;;;;6272064;28;20053;-86
2022/11/15 04:58:58;;;;;;;10.70;5.47;;;11.10;99.90;;;;;;6272389;28;20422;-85
2022/11/15 05:02:00;;;;;;;11.63;4.68;;;11.20;99.90;;;;;;6272196;28;20075;-85
2022/11/15 05:05:03;;;;;;;9.35;5.32;;;11.30;99.90;;;;;;6271783;28;20073;-85
2022/11/15 05:08:05;;;;;;;9.75;5.18;;;11.10;99.90;;;;;;6271867;28;20065;-85
2022/11/15 05:11:07;;;;;;;12.23;5.32;;;11.30;99.90;;;;;;6272044;28;20059;-85
2022/11/15 05:14:09;;;;;;;11.65;5.28;;;11.40;99.90;;;;;;6271695;28;20056;-85
2022/11/15 05:17:11;;;;;;;12.98;5.13;;;11.50;99.90;;;;;;6272657;28;20118;-86
2022/11/15 05:20:15;;;;;;;11.57;5.60;;;11.50;99.90;;;;;;6273820;28;20126;-85
2022/11/15 05:23:17;;;;;;;13.88;5.25;;;11.50;99.90;;;;;;6272177;28;20642;-85
2022/11/15 05:26:19;;;;;;;10.13;5.20;;;11.60;99.90;;;;;;6271192;28;20668;-86
2022/11/15 05:29:21;;;;;;;12.00;5.28;;;11.60;99.90;;;;;;6271753;28;20045;-85
2022/11/15 05:32:23;;;;;;;11.85;5.38;;;11.50;99.90;;;;;;6271740;28;20036;-85
2022/11/15 05:35:32;;;;;;;8.07;4.55;;;11.50;99.90;;;;;;6272052;28;20616;-86
2022/11/15 05:38:34;;;;;;;9.55;4.53;;;11.40;99.90;;;;;;6273210;28;20052;-85
2022/11/15 05:41:40;;;;;;;10.38;4.95;;;11.30;99.90;;;;;;6280222;28;20112;-85
2022/11/15 05:44:45;;;;;;;7.43;4.00;;;11.30;99.90;;;;;;6280729;28;20508;-85
2022/11/15 05:47:49;;;;;;;7.88;4.88;;;11.20;99.90;;;;;;6272617;28;20052;-85
2022/11/15 05:50:53;;;;;;;14.68;5.65;;;11.20;99.90;;;;;;6273359;28;20064;-85
2022/11/15 05:53:59;;;;;;;6.50;4.03;;;11.20;99.90;;;;;;6275013;28;20147;-86
2022/11/15 05:57:01;;;;;;;12.43;4.90;;;11.50;99.90;;;;;;6274568;28;20132;-86
2022/11/15 06:00:04;;;;;;;11.23;6.57;;;11.40;99.90;;;;;;6274689;28;20147;-87
2022/11/15 06:07:52;;;;;;;;;;;;;;;;;;;;;
2022/11/15 06:11:15;;;;;;;12.75;5.82;;;10.50;99.90;;;;;;6120932;28;20576;-85
2022/11/15 06:14:44;;;;;;;11.48;4.55;;;10.60;99.90;;;;;;6277024;28;20071;-85
2022/11/15 06:17:57;;;;;;;9.77;5.10;;;10.50;99.90;;;;;;6293382;28;20048;-86
2022/11/15 06:21:19;;;;;;;14.55;5.47;;;10.70;99.90;;;;;;6293366;28;20049;-85
2022/11/15 06:49:22;;;;;;;8.68;4.75;;;11.10;99.90;;;;;;6160002;28;20234;-85
2022/11/15 06:56:27;;;;;;;11.80;4.88;;;11.30;99.90;;;;;;6134509;28;20083;-84
2022/11/15 06:59:29;;;;;;;12.15;5.00;;;11.60;99.90;;;;;;6147333;28;20456;-84
2022/11/15 07:02:46;;;;;;;11.57;5.10;;;11.50;99.90;;;;;;6203543;28;20054;-85
2022/11/15 07:05:55;;;;;;;13.27;5.53;;;11.40;99.90;;;;;;6214546;28;20058;-84
2022/11/15 07:09:03;;;;;;;9.30;5.60;;;11.40;99.90;;;;;;6203937;28;20560;-85
2022/11/15 07:12:08;;;;;;;;;;;11.30;99.90;;;;;;6192559;28;20061;-84
2022/11/15 07:15:11;;;;;;;15.18;5.32;;;11.30;99.90;;;;;;6201351;28;19953;-84
2022/11/15 07:18:16;;;;;;;12.48;6.00;;;11.20;99.90;;;;;;6197797;28;20065;-83
2022/11/15 07:21:22;;;;;;;13.93;5.55;;;11.10;99.90;;;;;;6200217;28;20046;-85
2022/11/15 07:24:50;;;;;;;17.65;8.02;;;11.50;99.90;;;;;;6198457;28;20042;-84
2022/11/15 07:27:59;;;;;;;10.93;4.38;;;11.00;99.90;;;;;;6199901;28;20043;-84
2022/11/15 07:31:09;;;;;;;8.38;5.40;;;10.80;99.90;;;;;;6201009;28;20078;-85
2022/11/15 07:34:26;;;;;;;21.58;5.93;;;10.80;99.90;;;;;;6200666;28;20054;-84
2022/11/15 07:37:45;;;;;;;14.35;5.35;;;10.60;99.90;;;;;;6189119;28;20042;-85
2022/11/15 07:40:57;;;;;;;9.48;4.75;;;10.90;99.90;;;;;;6191909;28;20061;-84
2022/11/15 07:44:40;;;;;;;9.15;4.60;;;11.40;99.90;;;;;;6196005;28;20092;-85
2022/11/15 07:47:57;;;;;;;13.55;4.70;;;11.10;99.90;;;;;;6177615;28;20054;-84
2022/11/15 07:51:04;;;;;;;14.02;4.93;;;11.10;99.90;;;;;;6213370;28;20058;-84
2022/11/15 07:54:11;;;;;;;8.32;4.85;;;11.40;99.90;;;;;;6200014;28;20046;-85
2022/11/15 07:57:29;;;;;;;12.23;4.05;;;11.50;99.90;;;;;;6200383;28;20101;-85
2022/11/15 08:00:31;;;;;;;13.93;4.63;;;11.60;99.90;;;;;;6229319;23;20042;-84
2022/11/15 08:03:33;;;;;;;10.82;4.47;;;11.80;99.90;;;;;;6247091;28;20056;-84
2022/11/15 08:06:36;;;;;;;8.98;4.18;;;11.80;99.90;;;;;;6224281;28;20049;-82
2022/11/15 08:09:38;;;;;;;9.55;4.53;;;12.00;99.90;;;;;;6223859;28;20046;-85
2022/11/15 08:12:40;;;;;;;8.43;3.63;;;12.10;99.90;;;;;;6234827;28;20049;-82
2022/11/15 08:15:42;;;;;;;9.68;5.28;;;12.20;99.90;;;;;;6248349;28;20387;-83
2022/11/15 08:18:44;;;;;;;8.00;4.95;;;12.40;99.90;;;;;;6249227;28;20049;-85
2022/11/15 08:21:47;;;;;;;8.68;5.30;;;12.50;99.90;;;;;;6247705;28;20071;-82
2022/11/15 08:24:49;;;;;;;9.25;5.22;;;12.50;99.90;;;;;;6247595;28;20048;-86
2022/11/15 08:27:52;;;;;;;9.77;4.80;;;12.60;99.90;;;;;;6248001;28;20053;-83
2022/11/15 08:30:54;;;;;;;10.65;5.10;;;12.60;99.90;;;;;;6249361;28;20489;-82
2022/11/15 08:33:56;;;;;;;21.50;14.48;;;12.80;99.90;;;;;;6248361;28;20462;-84
2022/11/15 08:36:59;;;;;;;18.17;12.35;;;13.00;99.90;;;;;;6248085;28;20057;-84
2022/11/15 08:40:01;;;;;;;13.50;5.63;;;13.10;99.90;;;;;;6247851;28;20037;-83
2022/11/15 08:43:02;;;;;;;19.42;5.07;;;13.20;99.90;;;;;;6248215;28;20121;-83
2022/11/15 08:46:04;;;;;;;6.50;4.57;;;13.40;99.90;;;;;;6247625;28;20041;-84
2022/11/15 08:49:06;;;;;;;12.30;4.10;;;13.60;99.90;;;;;;6247426;28;20064;-84
2022/11/15 08:52:09;;;;;;;7.40;3.53;;;13.80;99.90;;;;;;6247941;28;20045;-82
2022/11/15 08:55:11;;;;;;;9.30;5.57;;;13.70;99.90;;;;;;6247972;28;20056;-82
2022/11/15 08:58:12;;;;;;;9.52;3.90;;;13.80;99.90;;;;;;6247166;28;20041;-83
2022/11/15 09:01:17;;;;;;;8.23;4.07;;;14.00;99.90;;;;;;6247795;28;20499;-83
2022/11/15 09:04:19;;;;;;;8.48;3.97;;;14.10;99.90;;;;;;6248018;28;20052;-83
2022/11/15 09:07:22;;;;;;;9.63;3.22;;;14.30;99.90;;;;;;6250936;28;20045;-85
2022/11/15 09:10:24;;;;;;;7.80;4.13;;;14.40;99.90;;;;;;6247534;28;20518;-83
2022/11/15 09:13:26;;;;;;;8.15;4.97;;;14.50;99.90;;;;;;6248920;28;20059;-83
2022/11/15 09:16:28;;;;;;;9.00;4.22;;;14.70;99.90;;;;;;6248005;28;20083;-84
2022/11/15 09:19:30;;;;;;;7.35;4.50;;;14.80;99.90;;;;;;6248201;28;20514;-84
2022/11/15 09:22:33;;;;;;;10.23;3.67;;;14.90;99.90;;;;;;6248287;28;20068;-84
2022/11/15 09:25:35;;;;;;;11.57;4.35;;;14.90;99.90;;;;;;6258931;28;20045;-84
2022/11/15 09:28:37;;;;;;;9.05;4.88;;;14.90;99.90;;;;;;6260397;28;20065;-84
2022/11/15 09:31:39;;;;;;;12.05;6.13;;;15.00;99.90;;;;;;6252609;28;20093;-85
2022/11/15 09:34:41;;;;;;;10.15;5.10;;;15.10;99.90;;;;;;6251719;28;20049;-83
2022/11/15 09:37:44;;;;;;;10.38;5.18;;;15.20;99.90;;;;;;6253086;28;20053;-86
2022/11/15 09:40:49;;;;;;;9.23;4.50;;;15.30;99.90;;;;;;6255047;28;20049;-85
2022/11/15 09:43:59;;;;;;;4.35;2.78;;;15.40;99.90;;;;;;6255193;28;20049;-84
2022/11/15 09:47:09;;;;;;;5.72;3.22;;;15.30;99.90;;;;;;6255018;28;20056;-85
2022/11/15 09:50:15;;;;;;;6.75;3.53;;;15.20;99.90;;;;;;6253780;28;20418;-83
2022/11/15 09:53:25;;;;;;;7.32;2.83;;;15.20;99.90;;;;;;6254520;28;20054;-85
2022/11/15 09:56:30;;;;;;;6.35;2.83;;;15.20;99.90;;;;;;6254178;28;20049;-85
2022/11/15 09:59:55;;;;;;;4.47;3.00;;;15.00;99.90;;;;;;6254158;28;20402;-85
2022/11/15 10:03:10;;;;;;;3.30;1.77;;;15.00;99.90;;;;;;6253908;28;20053;-84
2022/11/15 10:06:22;;;;;;;6.85;3.35;;;15.20;99.90;;;;;;6253720;28;20048;-86
2022/11/15 10:09:29;;;;;;;7.82;3.38;;;15.30;99.90;;;;;;6252831;28;20049;-82
2022/11/15 10:12:32;;;;;;;4.47;2.88;;;15.40;99.90;;;;;;6252863;28;20049;-86
2022/11/15 10:15:35;;;;;;;7.55;4.45;;;15.40;99.90;;;;;;6252466;28;20046;-86
2022/11/15 10:18:48;;;;;;;14.82;7.05;;;15.40;99.90;;;;;;6252679;28;20053;-84
2022/11/15 10:22:01;;;;;;;8.38;4.53;;;15.30;99.90;;;;;;6252121;28;20045;-85
2022/11/15 10:25:20;;;;;;;7.97;3.47;;;15.40;99.90;;;;;;6251701;28;20045;-83
2022/11/15 10:28:26;;;;;;;12.00;6.10;;;15.40;99.90;;;;;;6251726;28;20037;-83
2022/11/15 10:31:29;;;;;;;10.05;4.25;;;15.30;99.90;;;;;;6251701;28;20056;-85
2022/11/15 10:34:37;;;;;;;9.60;4.28;;;15.20;99.90;;;;;;6252289;28;20060;-83
2022/11/15 10:37:38;;;;;;;8.68;4.45;;;15.30;99.90;;;;;;6251426;28;20052;-83
2022/11/15 10:40:43;;;;;;;7.63;4.32;;;15.30;99.90;;;;;;6251092;28;20045;-84
2022/11/15 10:43:45;;;;;;;8.35;4.15;;;15.40;99.90;;;;;;6250537;28;20037;-85
2022/11/15 10:46:50;;;;;;;13.80;4.10;;;15.30;99.90;;;;;;6251390;28;20049;-85
2022/11/15 10:50:07;;;;;;;9.18;4.03;;;15.30;99.90;;;;;;6250791;28;20107;-82
2022/11/15 10:53:23;;;;;;;6.65;3.97;;;15.30;99.90;;;;;;6250726;28;20076;-83
2022/11/15 10:56:27;;;;;;;7.35;3.65;;;15.20;99.90;;;;;;6250512;28;20046;-84
2022/11/15 10:59:32;;;;;;;7.15;3.58;;;15.30;99.90;;;;;;6250541;28;20065;-84
2022/11/15 11:02:36;;;;;;;4.15;2.50;;;15.20;99.90;;;;;;6250872;28;20045;-85
2022/11/15 11:05:40;;;;;;;9.57;2.80;;;15.20;99.90;;;;;;6250983;28;20442;-85
2022/11/15 11:08:55;;;;;;;7.10;2.60;;;15.30;99.90;;;;;;6234961;28;20061;-84
2022/11/15 11:11:58;;;;;;;5.90;2.40;;;15.20;99.90;;;;;;6244022;28;20045;-82
2022/11/15 11:15:03;;;;;;;10.32;3.75;;;15.30;99.90;;;;;;6246893;28;20054;-83
2022/11/15 11:18:15;;;;;;;3.90;2.20;;;15.30;99.90;;;;;;6250033;28;20046;-85
2022/11/15 11:21:26;;;;;;;6.20;1.92;;;15.30;99.90;;;;;;6247078;28;20057;-82
2022/11/15 11:24:34;;;;;;;4.30;2.38;;;15.30;99.90;;;;;;6249421;28;20541;-84
2022/11/15 11:27:51;;;;;;;7.15;2.25;;;15.40;99.90;;;;;;6248577;28;20061;-83
2022/11/15 11:31:05;;;;;;;6.38;2.50;;;15.30;99.90;;;;;;6248899;28;20057;-83
2022/11/15 11:34:16;;;;;;;3.63;2.03;;;15.30;99.90;;;;;;6248613;28;20423;-83
2022/11/15 11:37:28;;;;;;;6.25;2.92;;;15.40;99.90;;;;;;6247691;28;20052;-82
2022/11/15 11:40:32;;;;;;;7.32;2.90;;;15.70;99.90;;;;;;6247645;28;20054;-83
2022/11/15 11:43:46;;;;;;;7.20;3.42;;;15.70;99.90;;;;;;6249820;28;20053;-83
2022/11/15 11:46:56;;;;;;;6.78;2.90;;;15.70;99.90;;;;;;6249322;28;20114;-83
2022/11/15 11:50:01;;;;;;;5.82;3.10;;;15.60;99.90;;;;;;6248049;28;20041;-83
2022/11/15 11:53:09;;;;;;;6.32;3.03;;;15.60;99.90;;;;;;6248799;28;20041;-83
2022/11/15 11:56:23;;;;;;;7.85;3.17;;;15.70;99.90;;;;;;6248433;28;20047;-81
2022/11/15 11:59:37;;;;;;;13.82;3.42;;;15.90;99.90;;;;;;6247022;28;20049;-84
2022/11/15 12:02:42;;;;;;;5.75;2.63;;;16.10;99.90;;;;;;6248698;28;20061;-82
2022/11/15 12:05:47;;;;;;;5.70;2.40;;;16.20;99.90;;;;;;6247812;28;20526;-83
2022/11/15 12:08:54;;;;;;;8.07;3.83;;;16.40;99.90;;;;;;6244871;28;20053;-83
2022/11/15 12:12:03;;;;;;;6.07;2.45;;;16.50;99.90;;;;;;6236070;28;20060;-83
2022/11/15 12:15:14;;;;;;;6.20;2.30;;;16.20;99.90;;;;;;6239307;28;20522;-83
2022/11/15 12:18:17;;;;;;;8.32;3.00;;;16.20;99.90;;;;;;6246410;28;20503;-84
2022/11/15 12:21:30;;;;;;;7.95;4.13;;;16.00;99.90;;;;;;6246311;28;20507;-81
2022/11/15 12:24:38;;;;;;;6.35;3.10;;;15.90;99.90;;;;;;6247306;28;20068;-82
2022/11/15 12:27:45;;;;;;;6.18;3.30;;;15.80;99.90;;;;;;6246222;28;20534;-83
2022/11/15 12:30:53;;;;;;;6.50;3.13;;;16.10;99.90;;;;;;6247220;28;20049;-82
2022/11/15 12:33:57;;;;;;;4.97;3.25;;;16.50;99.90;;;;;;6247429;28;20045;-82
2022/11/15 12:36:59;;;;;;;6.63;3.17;;;16.60;99.90;;;;;;6247637;28;20042;-84
2022/11/15 12:40:18;;;;;;;6.63;2.05;;;16.70;99.90;;;;;;6246560;28;20049;-83
2022/11/15 12:43:39;;;;;;;11.95;3.47;;;17.10;99.90;;;;;;6248931;28;20132;-85
2022/11/15 12:47:04;;;;;;;5.13;2.40;;;17.10;99.90;;;;;;6249857;28;20407;-82
2022/11/15 12:50:13;;;;;;;6.32;1.98;;;17.00;99.90;;;;;;6247628;28;20045;-84
2022/11/15 12:53:28;;;;;;;5.72;2.25;;;17.00;99.90;;;;;;6249052;28;20049;-84
2022/11/15 12:56:30;;;;;;;4.47;1.85;;;17.00;99.90;;;;;;6246913;28;20049;-84
2022/11/15 12:59:49;;;;;;;5.50;2.17;;;17.10;99.90;;;;;;6248948;28;20052;-84
2022/11/15 13:03:17;;;;;;;4.03;1.67;;;17.00;99.90;;;;;;6249385;28;20071;-85
2022/11/15 13:06:40;;;;;;;4.57;2.03;;;17.00;99.90;;;;;;6248965;28;20050;-83
2022/11/15 13:09:56;;;;;;;3.08;1.70;;;17.20;99.90;;;;;;6240703;28;20711;-83
2022/11/15 13:13:02;;;;;;;12.25;4.80;;;17.40;99.90;;;;;;6244118;28;20495;-87
2022/11/15 13:16:07;;;;;;;8.27;3.72;;;17.30;99.90;;;;;;6253583;28;20088;-84
2022/11/15 13:19:12;;;;;;;3.88;2.47;;;17.20;99.90;;;;;;6254640;28;20053;-83
2022/11/15 13:25:52;;;;;;;4.78;2.35;;;16.90;99.90;;;;;;6255954;28;20136;-84
2022/11/15 13:28:55;;;;;;;6.47;2.10;;;17.10;99.90;;;;;;6256280;28;20049;-84
2022/11/15 13:31:57;;;;;;;7.28;2.20;;;17.10;99.90;;;;;;6257834;28;20049;-85
2022/11/15 13:35:01;;;;;;;6.43;1.90;;;17.20;99.90;;;;;;6267769;28;20164;-83
2022/11/15 13:38:05;;;;;;;4.00;2.17;;;17.10;99.90;;;;;;6252622;28;20046;-84
2022/11/15 13:41:20;;;;;;;6.38;2.38;;;17.10;99.90;;;;;;6253641;28;20049;-84
2022/11/15 13:44:23;;;;;;;5.28;2.35;;;17.10;99.90;;;;;;6253091;28;20045;-85
2022/11/15 13:47:27;;;;;;;4.75;1.85;;;17.20;99.90;;;;;;6252378;28;20410;-83
2022/11/15 13:50:34;;;;;;;5.22;2.13;;;17.10;99.90;;;;;;6252690;28;20614;-84
2022/11/15 13:53:40;;;;;;;3.72;1.83;;;17.00;99.90;;;;;;6253163;28;20049;-83
2022/11/15 13:56:45;;;;;;;4.97;2.53;;;16.80;99.90;;;;;;6251796;28;20045;-83
2022/11/15 13:59:49;;;;;;;5.07;2.13;;;16.70;99.90;;;;;;6250643;28;20052;-82
2022/11/15 14:02:51;;;;;;;7.82;3.00;;;16.60;99.90;;;;;;6252431;28;20053;-84
2022/11/15 14:06:14;;;;;;;4.68;3.15;;;16.40;99.90;;;;;;6251627;28;20053;-85
2022/11/15 14:09:32;;;;;;;3.80;1.98;;;16.10;99.90;;;;;;6252136;28;20061;-84
2022/11/15 14:12:35;;;;;;;2.93;1.83;;;16.10;99.90;;;;;;6244436;28;20052;-84
2022/11/15 14:15:38;;;;;;;4.13;2.08;;;16.30;99.90;;;;;;6252362;28;20053;-83
2022/11/15 14:18:44;;;;;;;4.32;2.42;;;16.30;99.90;;;;;;6251867;28;20396;-83
2022/11/15 14:22:13;;;;;;;7.60;2.35;;;16.20;99.90;;;;;;6251296;28;20046;-83
2022/11/15 14:25:21;;;;;;;8.93;2.63;;;16.10;99.90;;;;;;6251650;28;20050;-83
2022/11/15 14:28:36;;;;;;;2.85;1.52;;;16.10;99.90;;;;;;6251025;28;20041;-83
2022/11/15 14:31:40;;;;;;;3.25;1.98;;;16.20;99.90;;;;;;6251494;28;20275;-83
2022/11/15 14:34:42;;;;;;;6.03;2.03;;;16.20;99.90;;;;;;6252281;28;20049;-84
2022/11/15 14:37:45;;;;;;;7.43;1.95;;;16.40;99.90;;;;;;6250758;28;20048;-84
2022/11/15 14:40:47;;;;;;;2.63;1.35;;;16.40;99.90;;;;;;6250334;28;20053;-82
2022/11/15 14:43:50;;;;;;;2.75;1.80;;;16.30;99.90;;;;;;6250638;28;20041;-83
2022/11/15 14:46:51;;;;;;;6.70;2.05;;;16.30;99.90;;;;;;6250620;28;20577;-84
2022/11/15 14:49:53;;;;;;;2.63;1.70;;;16.20;99.90;;;;;;6249579;28;20423;-84
2022/11/15 14:52:56;;;;;;;5.95;1.90;;;16.10;99.90;;;;;;6250469;28;20507;-84
2022/11/15 14:55:58;;;;;;;4.43;2.20;;;15.90;99.90;;;;;;6251722;28;20049;-84
2022/11/15 14:58:59;;;;;;;8.38;3.38;;;15.90;99.90;;;;;;6252393;28;20053;-83
2022/11/15 15:02:01;;;;;;;11.82;7.15;;;15.80;99.90;;;;;;6252162;28;20049;-84
2022/11/15 15:05:15;;;;;;;19.10;10.60;;;15.80;99.90;;;;;;6246990;28;20065;-82
2022/11/15 15:08:18;;;;;;;36.88;17.63;;;15.80;99.90;;;;;;6227058;28;20046;-82
2022/11/15 15:11:23;;;;;;;29.38;12.30;;;15.80;99.90;;;;;;6239638;28;20049;-84
2022/11/15 15:14:27;;;;;;;39.67;19.15;;;15.80;99.90;;;;;;6253263;28;20392;-83
2022/11/15 15:17:28;;;;;;;16.48;9.10;;;15.80;99.90;;;;;;6251929;28;20081;-85
2022/11/15 15:20:30;;;;;;;12.20;7.20;;;15.90;99.90;;;;;;6252251;28;20053;-83
2022/11/15 15:23:35;;;;;;;7.05;4.35;;;16.00;99.90;;;;;;6252041;28;20060;-85
2022/11/15 15:26:38;;;;;;;12.02;4.47;;;15.90;99.90;;;;;;6251600;28;20084;-83
2022/11/15 15:29:41;;;;;;;10.65;4.50;;;15.90;99.90;;;;;;6250106;28;20049;-83
2022/11/15 15:32:42;;;;;;;5.88;3.28;;;15.90;99.90;;;;;;6251339;28;20049;-83
2022/11/15 15:35:44;;;;;;;14.40;3.58;;;15.90;99.90;;;;;;6250866;28;20058;-86
2022/11/15 15:38:47;;;;;;;6.82;3.25;;;16.00;99.90;;;;;;6253152;28;20045;-83
2022/11/15 15:41:49;;;;;;;5.60;2.92;;;15.90;99.90;;;;;;6250794;28;20136;-84
2022/11/15 15:44:51;;;;;;;5.65;3.42;;;15.80;99.90;;;;;;6249637;28;20045;-82
2022/11/15 15:47:53;;;;;;;5.97;2.75;;;15.80;99.90;;;;;;6251432;28;20041;-84
2022/11/15 15:50:55;;;;;;;3.95;2.10;;;15.80;99.90;;;;;;6250854;28;20053;-84
2022/11/15 15:53:58;;;;;;;6.13;2.33;;;15.70;99.90;;;;;;6250620;28;20545;-84
2022/11/15 15:56:59;;;;;;;8.48;3.22;;;15.70;99.90;;;;;;6249283;28;20251;-81
2022/11/15 16:00:01;;;;;;;8.55;2.65;;;15.60;99.90;;;;;;6248757;28;20049;-85
2022/11/15 16:03:03;;;;;;;5.13;2.28;;;15.50;99.90;;;;;;6248184;28;20557;-86
2022/11/15 16:06:05;;;;;;;10.75;4.20;;;15.50;99.90;;;;;;6249875;28;20053;-85
2022/11/15 16:09:14;;;;;;;15.05;6.95;;;15.50;99.90;;;;;;6247661;28;20111;-85
2022/11/15 16:12:16;;;;;;;8.13;4.68;;;15.40;99.90;;;;;;6250328;28;20050;-84
2022/11/15 16:15:18;;;;;;;6.15;4.40;;;15.50;99.90;;;;;;6249640;28;20066;-84
2022/11/15 16:18:20;;;;;;;6.13;2.72;;;15.40;99.90;;;;;;6250084;28;20042;-84
2022/11/15 16:21:21;;;;;;;7.25;3.00;;;15.30;99.90;;;;;;6251567;28;20045;-85
2022/11/15 16:24:24;;;;;;;8.75;3.55;;;15.20;99.90;;;;;;6248479;28;20038;-86
2022/11/15 16:27:26;;;;;;;5.97;2.63;;;15.20;99.90;;;;;;6248076;28;20050;-84
2022/11/15 16:30:28;;;;;;;15.95;2.83;;;15.20;99.90;;;;;;6250111;28;20415;-86
2022/11/15 16:33:29;;;;;;;4.45;2.35;;;15.20;99.90;;;;;;6251078;28;20053;-85
2022/11/15 16:36:33;;;;;;;5.28;2.13;;;15.10;99.90;;;;;;6248325;28;20053;-85
2022/11/15 16:39:36;;;;;;;4.05;1.60;;;15.10;99.90;;;;;;6247829;28;20135;-84
2022/11/15 16:42:38;;;;;;;5.18;2.13;;;15.20;99.90;;;;;;6247455;28;20461;-85
2022/11/15 16:45:40;;;;;;;5.63;1.88;;;15.20;99.90;;;;;;6250999;28;20053;-86
2022/11/15 16:48:41;;;;;;;9.15;2.42;;;15.10;99.90;;;;;;6251192;28;20053;-84
2022/11/15 16:51:45;;;;;;;5.68;2.58;;;15.10;99.90;;;;;;6248361;28;20046;-83
2022/11/15 16:54:48;;;;;;;8.55;2.50;;;15.10;99.90;;;;;;6247940;28;20057;-84
2022/11/15 16:57:50;;;;;;;5.75;2.55;;;15.10;99.90;;;;;;6244049;28;20099;-86
2022/11/15 17:00:53;;;;;;;6.13;2.83;;;15.00;99.90;;;;;;6241847;28;20042;-83
2022/11/15 17:03:55;;;;;;;3.85;2.13;;;15.00;99.90;;;;;;6251296;28;20042;-84
2022/11/15 17:06:57;;;;;;;5.93;1.90;;;15.00;99.90;;;;;;6247690;28;20049;-84
2022/11/15 17:10:00;;;;;;;3.53;1.58;;;14.90;99.90;;;;;;6248393;28;20057;-85
2022/11/15 17:13:01;;;;;;;6.03;1.92;;;14.90;99.90;;;;;;6255639;28;20101;-85
2022/11/15 17:16:05;;;;;;;11.40;2.80;;;14.90;99.90;;;;;;6246488;28;20038;-84
2022/11/15 17:19:07;;;;;;;5.75;3.28;;;14.80;99.90;;;;;;6247243;28;20046;-84
2022/11/15 17:22:08;;;;;;;5.35;3.17;;;14.90;99.90;;;;;;6247763;28;20418;-84
2022/11/15 17:25:12;;;;;;;12.55;3.70;;;14.90;99.90;;;;;;6247330;28;20049;-84
2022/11/15 17:28:13;;;;;;;6.10;3.88;;;14.90;99.90;;;;;;6248962;28;20046;-84